This is the latest recevied weather packets stored in our database for station/object IU1CYJ. If no packets are shown the sender has not sent any weather packets the latest 10 day(s).
| Time | Temp. | Humidity | Pressure | Rain* | Wind** | Luminosity | Snow |
|---|---|---|---|---|---|---|---|
| 1777274161 | 17.78° C | 73% | 1019.2 hPa | 0 mm | - | - | - |
| 1777266066 | 12.78° C | 87% | 1018.7 hPa | 0 mm | - | - | - |
| 1777264262 | 12.78° C | 87% | 1018.4 hPa | 0 mm | - | - | - |
| 1777263362 | 12.78° C | 87% | 1018.3 hPa | 0 mm | - | - | - |
| 1777261554 | 12.78° C | 86% | 1018.1 hPa | 0 mm | - | - | - |
| 1777257956 | 13.33° C | 85% | 1018 hPa | 0 mm | - | - | - |
| 1777254355 | 13.89° C | 84% | 1018 hPa | 0 mm | - | - | - |
| 1777249853 | 15° C | 82% | 1018.2 hPa | 0 mm | - | - | - |
| 1777244457 | 16.11° C | 77% | 1018.2 hPa | 0 mm | - | - | - |
| 1777242657 | 16.67° C | 75% | 1018.1 hPa | 0 mm | - | - | - |
| 1777239052 | 17.78° C | 73% | 1017.9 hPa | 0 mm | - | - | - |
| 1777237256 | 17.78° C | 73% | 1017.7 hPa | 0 mm | - | - | - |
| 1777234557 | 20° C | 65% | 1017.5 hPa | 0 mm | - | - | - |
| 1777231858 | 20.56° C | 66% | 1017.3 hPa | 0 mm | - | - | - |
| 1777223766 | 23.89° C | 49% | 1016 hPa | 0 mm | - | - | - |
| 1777221056 | 23.89° C | 46% | 1016.1 hPa | 0 mm | - | - | - |
| 1777216553 | 24.44° C | 43% | 1016.3 hPa | 0 mm | - | - | - |
| 1777215653 | 24.44° C | 42% | 1016.4 hPa | 0 mm | - | - | - |
| 1777213852 | 24.44° C | 40% | 1016.4 hPa | 0 mm | - | - | - |
| 1777211165 | 24.44° C | 46% | 1016.7 hPa | 0 mm | - | - | - |
| 1777203061 | 23.33° C | 56% | 1017.4 hPa | 0 mm | - | - | - |
| 1777200353 | 22.22° C | 60% | 1017.8 hPa | 0 mm | - | - | - |
| 1777197657 | 21.67° C | 60% | 1018 hPa | 0 mm | - | - | - |
| 1777193154 | 20° C | 67% | 1018 hPa | 0 mm | - | - | - |
| 1777190453 | 17.78° C | 72% | 1017.8 hPa | 0 mm | - | - | - |
* Rain latest hour (hover to see other rain measurements)
** Current wind speed in m/s (hover to see current wind gust speed)